Terminal Aerodrome Forecast
Issued by NWS Houston/Galveston, TX

Home | Current Version | Previous Version | Text Only | Print | Product List | Glossary On
Versions: 1 2 3 4 5 6 7 8 9 10 11 12 13 14 15 16 17 18 19 20 21 22 23 24 25 26 27 28 29 30 31
000
FTUS44 KHGX 261620 AAC
TAFCLL
TAF AMD
KCLL 261620Z 2616/2712 16010G17KT P6SM SCT025
     FM261900 17016G26KT P6SM SCT035
     FM270300 17012KT P6SM OVC025
     FM270600 17012KT 6SM BR SCT007 BKN015=

USA.gov is the U.S. government's official web portal to all federal, state and local government web resources and services.